ΕΜΥ, Εθνική Μετεωρολογική Υπηρεσία - Δελτία Καιρού, Προγνώσεις

ΑΕΡΟΝΑΥΤΙΛΙΑ

GREEK AIRPORTS CODES

TAF LGST 161400Z 1615/1624 32018KT 9999 FEW025 TEMPO 1615/1618 32018G28KT=

EUROPEAN AIRPORTS CODES

LFPO 161600Z 34006KT 290V020 CAVOK 26/12 Q1019 NOSIG=